Mendoza, Texas
Current Conditions -  °F | °C
As of 5:55 PM on Friday 24 Oct 2014 (Local Time) from KHYI Reporting Station
Clear Clear  
Wind Chill: 84°   Ceiling: Unl
Heat Index: 84°   Visibility: 10mi
Dew Point: 57°   Wind: 7mph
Humidity: 40%   Direction: 90°E
Pressure: 30.08"   Gusts: NA
Location:  29.8965°N, 97.6713°W
Report Text: KHYI 242255Z 09006KT 10SM CLR 29/14 A3008
Loading
Personal Weather Stations






























Interactive Weather Map
Tropical Storm Tracking
New forecast layout! Learn more

10-Day Weather Forecast

Advertisements
Track Severe Weather on mobile